Time;durP1;ratioP1;P1;durP2;ratioP2;P2;SDS_P1;SDS_P2;PMS_P1;PMS_P2;Temp;Humidity;BMP_temperature;BMP_pressure;BME280_temperature;BME280_humidity;BME280_pressure;Samples;Min_cycle;Max_cycle;Signal;HPM_P1;HPM_P2
2022/08/17 00:00:28;;;;;;;6.60;4.87;;;;;;;20.82;55.42;97956.06;4905576;29;20249;-60
2022/08/17 00:02:56;;;;;;;6.07;4.80;;;;;;;20.75;55.65;97956.13;4906556;29;20230;-61
2022/08/17 00:05:24;;;;;;;4.77;4.27;;;;;;;20.73;56.07;97955.56;4913403;29;20708;-61
2022/08/17 00:07:50;;;;;;;5.03;4.40;;;;;;;20.69;55.42;97951.75;4911101;29;20233;-61
2022/08/17 00:10:17;;;;;;;6.67;4.63;;;;;;;20.63;55.84;97956.97;4906367;29;20241;-61
2022/08/17 00:12:44;;;;;;;6.20;4.60;;;;;;;20.50;56.53;97950.06;4915366;29;20487;-61
2022/08/17 00:15:12;;;;;;;8.57;4.40;;;;;;;20.45;56.55;97949.94;4914891;29;20233;-61
2022/08/17 00:17:41;;;;;;;4.57;3.83;;;;;;;20.34;56.74;97951.59;4914263;29;20280;-61
2022/08/17 00:20:10;;;;;;;5.17;4.40;;;;;;;20.26;56.97;97951.09;4902367;29;20315;-61
2022/08/17 00:22:37;;;;;;;5.33;4.53;;;;;;;20.18;57.23;97950.41;4918590;29;20259;-60
2022/08/17 00:25:06;;;;;;;4.90;4.40;;;;;;;20.11;57.42;97946.28;4910972;29;20710;-61
2022/08/17 00:27:33;;;;;;;5.13;4.63;;;;;;;20.08;57.71;97952.03;4910604;29;20245;-64
2022/08/17 00:30:00;;;;;;;5.37;4.43;;;;;;;20.01;58.08;97954.81;4932391;29;20259;-61
2022/08/17 00:32:27;;;;;;;6.07;3.90;;;;;;;20.09;58.13;97956.28;4902502;29;20229;-61
2022/08/17 00:34:55;;;;;;;8.30;4.90;;;;;;;20.01;58.10;97962.75;4907770;29;20226;-60
2022/08/17 00:37:22;;;;;;;4.77;4.27;;;;;;;19.97;58.22;97953.66;4929575;29;20695;-60
2022/08/17 00:39:49;;;;;;;5.97;4.70;;;;;;;19.96;58.25;97949.38;4915497;29;20220;-60
2022/08/17 00:42:18;;;;;;;5.30;4.20;;;;;;;19.87;58.39;97949.69;4912538;29;20303;-61
2022/08/17 00:44:45;;;;;;;5.80;4.23;;;;;;;19.83;58.62;97948.53;4913002;29;20318;-61
2022/08/17 00:47:13;;;;;;;4.97;4.30;;;;;;;19.80;59.03;97954.28;4906284;29;20330;-64
2022/08/17 00:49:40;;;;;;;8.93;5.10;;;;;;;19.77;59.36;97950.22;4912860;29;20232;-61
2022/08/17 00:52:15;;;;;;;7.30;4.67;;;;;;;19.80;59.33;97948.16;4913553;29;20763;-61
2022/08/17 00:54:46;;;;;;;5.13;4.40;;;;;;;19.85;59.44;97948.28;4917269;29;20234;-61
2022/08/17 00:57:18;;;;;;;8.20;4.40;;;;;;;19.86;59.22;97945.41;4914251;29;20247;-61
2022/08/17 00:59:48;;;;;;;7.07;4.23;;;;;;;19.87;59.18;97948.88;4919394;29;20233;-61
2022/08/17 01:02:16;;;;;;;8.33;4.53;;;;;;;19.94;58.06;97946.16;4969948;23;20253;-49
2022/08/17 01:04:46;;;;;;;6.57;4.60;;;;;;;20.03;57.90;97953.53;4972184;28;20235;-50
2022/08/17 01:07:15;;;;;;;6.70;4.60;;;;;;;20.05;57.84;97955.97;4970234;28;20262;-53
2022/08/17 01:09:43;;;;;;;5.23;4.30;;;;;;;20.07;57.82;97959.19;4979663;28;20577;-51
2022/08/17 01:12:11;;;;;;;5.53;4.83;;;;;;;20.04;58.03;97957.78;4963676;28;20273;-51
2022/08/17 01:14:39;;;;;;;7.30;4.67;;;;;;;20.04;58.32;97964.94;4973175;28;20239;-50
2022/08/17 01:17:06;;;;;;;7.20;4.60;;;;;;;20.05;58.88;97958.59;4976109;28;20319;-50
2022/08/17 01:19:36;;;;;;;9.00;4.43;;;;;;;20.00;58.14;97958.47;4973136;28;20788;-50
2022/08/17 01:22:20;;;;;;;6.30;4.57;;;;;;;19.97;58.14;97961.59;4976897;28;20310;-53
2022/08/17 01:24:52;;;;;;;5.07;4.30;;;;;;;19.97;59.15;97965.03;4981423;28;20228;-51
2022/08/17 01:27:20;;;;;;;5.97;4.20;;;;;;;19.88;58.77;97969.84;4982129;28;20245;-50
2022/08/17 01:29:49;;;;;;;5.20;4.30;;;;;;;19.82;59.16;97970.75;4970801;28;20232;-51
2022/08/17 01:32:17;;;;;;;7.07;4.83;;;;;;;19.79;59.71;97967.72;4981420;28;20248;-50
2022/08/17 01:34:44;;;;;;;7.87;4.63;;;;;;;19.77;60.21;97962.66;4974166;28;20234;-51
2022/08/17 01:37:12;;;;;;;4.63;4.07;;;;;;;19.77;60.48;97965.31;4974331;28;20654;-51
2022/08/17 01:39:43;;;;;;;5.27;4.13;;;;;;;19.79;59.94;97968.53;4977073;28;20281;-51
2022/08/17 01:42:36;;;;;;;5.20;4.20;;;;;;;19.84;60.27;97975.78;4978159;28;20364;-51
2022/08/17 01:45:25;;;;;;;6.60;5.03;;;;;;;19.79;60.47;97973.03;4982079;28;20322;-52
2022/08/17 01:47:54;;;;;;;5.20;4.80;;;;;;;19.85;60.52;97974.75;4970902;28;20236;-50
2022/08/17 01:50:23;;;;;;;5.77;4.57;;;;;;;19.82;60.75;97983.97;4981209;28;20240;-50
2022/08/17 01:52:57;;;;;;;5.63;4.77;;;;;;;19.80;61.10;97977.28;4980492;28;20236;-50
2022/08/17 01:55:30;;;;;;;5.43;4.23;;;;;;;19.90;60.86;97975.75;4976434;28;21189;-51
2022/08/17 01:57:57;;;;;;;5.80;4.70;;;;;;;19.82;61.11;97976.03;4970857;28;20579;-50
2022/08/17 02:00:24;;;;;;;5.97;4.50;;;;;;;19.87;60.27;97975.34;4962927;28;20716;-50
2022/08/17 02:02:51;;;;;;;5.00;4.50;;;;;;;19.96;60.36;97994.41;4972847;28;20228;-50
2022/08/17 02:05:18;;;;;;;8.07;4.60;;;;;;;20.00;60.17;97996.38;4977154;28;20784;-50
2022/08/17 02:07:45;;;;;;;4.80;4.30;;;;;;;20.06;58.94;97997.31;4963469;28;20224;-52
2022/08/17 02:10:12;;;;;;;6.37;5.10;;;;;;;20.19;59.65;98009.53;4979306;28;20240;-53
2022/08/17 02:12:40;;;;;;;8.77;5.23;;;;;;;20.17;60.35;98007.09;4980634;28;20320;-53
2022/08/17 02:15:11;;;;;;;6.47;5.70;;;;;;;20.08;61.14;98018.25;4977881;28;20701;-50
2022/08/17 02:17:39;;;;;;;7.33;6.50;;;;;;;19.99;61.95;98021.25;4966522;28;20593;-51
2022/08/17 02:20:07;;;;;;;10.00;7.60;;;;;;;19.92;63.04;98036.41;4976007;28;20234;-51
2022/08/17 02:22:35;;;;;;;7.83;7.10;;;;;;;19.84;63.74;98037.53;4970516;28;20240;-50
2022/08/17 02:25:02;;;;;;;7.83;6.50;;;;;;;19.76;63.65;98043.94;4980250;28;20235;-50
2022/08/17 02:27:29;;;;;;;10.77;6.50;;;;;;;19.69;63.96;98050.38;4973401;28;20270;-52
2022/08/17 02:29:57;;;;;;;7.20;6.37;;;;;;;19.73;64.25;98054.19;4973017;28;20323;-50
2022/08/17 02:32:26;;;;;;;10.00;7.83;;;;;;;19.73;65.19;98080.66;4969145;28;20241;-51
2022/08/17 02:34:52;;;;;;;9.33;8.13;;;;;;;19.59;66.07;98074.75;4961817;28;20240;-50
2022/08/17 02:37:19;;;;;;;8.87;8.00;;;;;;;19.65;65.30;98071.16;4971236;28;20619;-52
2022/08/17 02:39:46;;;;;;;7.97;6.33;;;;;;;19.81;63.02;98075.06;4980498;28;20249;-50
2022/08/17 02:42:14;;;;;;;7.33;6.57;;;;;;;20.08;62.65;98082.66;4978831;28;20235;-52
2022/08/17 02:44:41;;;;;;;9.10;6.23;;;;;;;20.17;61.73;98089.22;4979147;28;20328;-51
2022/08/17 02:47:11;;;;;;;8.27;6.97;;;;;;;20.33;61.84;98097.56;4964512;28;20237;-50
2022/08/17 02:49:38;;;;;;;8.20;7.40;;;;;;;20.55;61.72;98095.19;4968082;28;20265;-50
2022/08/17 02:52:07;;;;;;;8.73;7.90;;;;;;;20.72;62.81;98097.97;4976906;28;20855;-50
2022/08/17 02:54:34;;;;;;;13.90;9.40;;;;;;;20.77;63.42;98118.47;4981301;28;20268;-50
2022/08/17 02:57:01;;;;;;;12.27;9.23;;;;;;;20.69;64.12;98110.88;4977002;28;20312;-50
2022/08/17 02:59:28;;;;;;;10.70;9.60;;;;;;;20.64;64.44;98107.09;4972146;28;20234;-51
2022/08/17 03:01:55;;;;;;;13.13;8.63;;;;;;;20.62;64.50;98111.81;4975239;28;20236;-50
2022/08/17 03:04:23;;;;;;;9.57;7.93;;;;;;;20.58;63.78;98115.13;4977018;28;20248;-50
2022/08/17 03:06:50;;;;;;;10.17;7.67;;;;;;;20.60;63.26;98102.44;4974678;28;20316;-51
2022/08/17 03:09:16;;;;;;;8.27;6.87;;;;;;;20.62;62.33;98097.72;4981812;28;20250;-52
2022/08/17 03:11:43;;;;;;;7.63;6.80;;;;;;;20.63;61.58;98104.66;4975094;28;20229;-52
2022/08/17 03:14:10;;;;;;;10.03;6.70;;;;;;;20.69;60.85;98117.00;4959375;28;20271;-50
2022/08/17 03:16:37;;;;;;;11.27;8.97;;;;;;;20.77;63.41;98118.47;4960539;28;20250;-50
2022/08/17 03:19:03;;;;;;;12.17;8.40;;;;;;;20.68;63.95;98104.78;4975759;28;20332;-51
2022/08/17 03:21:32;;;;;;;9.10;8.10;;;;;;;20.58;64.14;98107.19;4979047;28;20240;-50
2022/08/17 03:23:58;;;;;;;8.60;7.70;;;;;;;20.47;64.70;98104.28;4973925;28;20329;-50
2022/08/17 03:26:25;;;;;;;10.13;7.90;;;;;;;20.42;65.02;98104.16;4980704;28;20250;-52
2022/08/17 03:28:52;;;;;;;8.07;7.03;;;;;;;20.38;64.45;98100.34;4978846;28;20740;-50
2022/08/17 03:31:20;;;;;;;7.33;6.10;;;;;;;20.67;60.43;98099.72;4966916;28;20238;-53
2022/08/17 03:33:47;;;;;;;8.90;6.00;;;;;;;20.79;60.56;98104.00;4959717;28;20655;-50
2022/08/17 03:36:14;;;;;;;7.63;6.20;;;;;;;20.84;60.00;98095.34;4970933;28;20318;-53
2022/08/17 03:38:42;;;;;;;6.40;5.57;;;;;;;21.01;58.15;98092.81;4967824;28;20655;-50
2022/08/17 03:41:08;;;;;;;6.07;5.47;;;;;;;21.16;56.90;98092.31;4977439;28;20285;-51
2022/08/17 03:43:35;;;;;;;8.00;5.53;;;;;;;21.26;57.06;98101.53;4976859;28;20240;-50
2022/08/17 03:57:03;;;;;;;7.13;5.27;;;;;;;21.58;56.17;98120.50;4970462;28;20721;-50
2022/08/17 03:59:31;;;;;;;5.93;5.33;;;;;;;21.54;55.90;98116.72;4970487;28;20328;-52
2022/08/17 04:02:02;;;;;;;9.33;5.53;;;;;;;21.49;56.20;98114.78;4962725;28;20322;-50
2022/08/17 04:04:29;;;;;;;7.73;5.20;;;;;;;21.50;55.86;98112.91;4972538;28;20239;-51
2022/08/17 04:06:56;;;;;;;5.73;5.17;;;;;;;21.43;56.29;98120.19;4978650;28;20231;-52
2022/08/17 04:09:24;;;;;;;7.40;5.80;;;;;;;21.35;57.25;98119.53;4981038;28;20241;-51
2022/08/17 04:11:52;;;;;;;7.07;5.47;;;;;;;21.23;57.04;98113.41;4973811;28;20719;-52
2022/08/17 04:14:19;;;;;;;6.23;5.10;;;;;;;21.19;57.78;98115.75;4970915;28;20259;-51
2022/08/17 04:16:45;;;;;;;7.40;5.37;;;;;;;21.09;58.41;98115.53;4973394;28;20630;-51
2022/08/17 04:19:12;;;;;;;6.00;5.30;;;;;;;21.01;58.67;98116.69;4975469;28;20268;-51
2022/08/17 04:21:39;;;;;;;7.90;5.30;;;;;;;20.91;59.23;98114.59;4967625;28;20237;-52
2022/08/17 04:24:06;;;;;;;7.50;5.50;;;;;;;20.90;59.38;98123.59;4975934;28;20238;-50
2022/08/17 04:26:34;;;;;;;6.07;5.47;;;;;;;20.94;58.74;98116.00;4976051;28;20689;-51
2022/08/17 04:29:01;;;;;;;6.23;5.40;;;;;;;20.92;58.71;98110.13;4963659;28;20228;-51
2022/08/17 04:31:28;;;;;;;6.10;5.50;;;;;;;20.88;59.88;98111.63;4971616;28;20294;-52
2022/08/17 04:33:55;;;;;;;7.00;5.93;;;;;;;20.83;60.07;98114.16;4970799;28;20686;-50
2022/08/17 04:36:22;;;;;;;7.50;6.00;;;;;;;20.76;60.46;98114.22;4968404;28;20256;-50
2022/08/17 04:38:48;;;;;;;8.53;5.97;;;;;;;20.73;60.45;98112.03;4973419;28;20229;-50
2022/08/17 04:44:03;;;;;;;8.53;5.47;;;;;;;20.76;60.73;98111.56;4973296;28;20776;-50
2022/08/17 04:46:33;;;;;;;5.90;5.30;;;;;;;20.81;60.55;98103.75;4978228;28;20234;-53
2022/08/17 04:49:02;;;;;;;5.60;5.10;;;;;;;20.86;60.10;98103.09;4978420;28;20645;-50
2022/08/17 04:51:47;;;;;;;11.70;5.60;;;;;;;20.89;60.80;98102.63;4964723;28;20242;-50
2022/08/17 04:54:17;;;;;;;6.73;6.10;;;;;;;20.96;60.59;98113.09;4970811;28;20254;-50
2022/08/17 04:56:44;;;;;;;9.07;5.80;;;;;;;20.96;60.75;98113.94;4972601;28;20270;-51
2022/08/17 04:59:14;;;;;;;10.60;6.50;;;;;;;20.93;60.54;98111.72;4973707;28;20347;-50
2022/08/17 05:01:44;;;;;;;5.83;5.33;;;;;;;20.97;59.84;98112.06;4963759;28;20243;-51
2022/08/17 05:04:15;;;;;;;7.57;6.03;;;;;;;21.00;60.00;98122.22;4973568;28;20322;-50
2022/08/17 05:06:42;;;;;;;7.03;6.03;;;;;;;20.99;59.96;98121.41;4974205;28;20235;-53
2022/08/17 05:09:09;;;;;;;6.27;5.70;;;;;;;21.03;59.75;98117.28;4973403;28;20906;-53
2022/08/17 05:11:36;;;;;;;9.43;6.40;;;;;;;21.15;59.13;98122.56;4974885;28;20242;-52
2022/08/17 05:14:03;;;;;;;7.67;5.90;;;;;;;21.30;58.63;98122.06;4970671;28;20252;-53
2022/08/17 05:16:31;;;;;;;7.20;5.70;;;;;;;21.43;57.63;98118.38;4962472;28;20230;-50
2022/08/17 05:18:58;;;;;;;7.63;5.87;;;;;;;21.52;57.92;98113.50;4970667;28;20311;-51
2022/08/17 05:21:27;;;;;;;6.10;5.50;;;;;;;21.60;57.93;98104.34;4967613;28;20242;-53
2022/08/17 05:23:57;;;;;;;9.20;5.40;;;;;;;21.67;57.21;98092.56;4970273;28;20751;-53
2022/08/17 05:26:25;;;;;;;6.53;5.60;;;;;;;21.72;56.51;98075.94;4973531;28;20915;-52
2022/08/17 05:28:52;;;;;;;7.67;5.53;;;;;;;21.64;57.79;98086.94;4976072;28;20259;-50
2022/08/17 05:31:19;;;;;;;6.47;5.30;;;;;;;21.62;58.42;98105.75;4977638;28;20274;-51
2022/08/17 05:33:48;;;;;;;8.20;5.57;;;;;;;21.58;59.54;98106.44;4967013;28;20236;-51
2022/08/17 05:36:15;;;;;;;9.40;5.73;;;;;;;21.53;59.92;98129.19;4969885;28;20244;-53
2022/08/17 05:38:42;;;;;;;6.90;5.97;;;;;;;21.52;60.46;98143.53;4958989;28;20232;-54
2022/08/17 05:41:10;;;;;;;9.20;6.37;;;;;;;21.48;63.56;98147.69;4973567;28;20710;-54
2022/08/17 05:43:38;;;;;;;6.60;6.00;;;;;;;21.40;65.08;98156.00;4966867;28;20327;-53
2022/08/17 05:46:10;;;;;;;6.60;6.00;;;;;;;21.22;64.46;98156.94;4977563;28;20243;-53
2022/08/17 05:48:41;;;;;;;9.37;6.37;;;;;;;21.05;68.30;98164.78;4975095;28;20243;-51
2022/08/17 05:51:23;;;;;;;7.43;6.27;;;;;;;20.85;69.44;98163.25;4973934;28;20656;-53
2022/08/17 05:53:58;;;;;;;8.90;7.23;;;;;;;20.74;76.95;98161.38;4971810;28;20713;-52
2022/08/17 05:56:41;;;;;;;9.43;6.10;;;;;;;20.44;77.60;98167.56;4975369;28;20298;-53
2022/08/17 05:59:15;;;;;;;8.33;6.40;;;;;;;20.38;77.78;98176.41;4973920;28;20241;-52
2022/08/17 06:01:49;;;;;;;7.13;6.43;;;;;;;20.26;81.70;98158.63;4961980;28;20674;-54
2022/08/17 06:04:24;;;;;;;6.83;6.07;;;;;;;20.25;82.26;98142.94;4967094;28;20296;-51
2022/08/17 06:07:04;;;;;;;8.27;6.60;;;;;;;20.32;83.61;98151.59;4969453;28;20281;-50
2022/08/17 06:09:39;;;;;;;8.43;6.60;;;;;;;20.47;81.03;98141.38;4971837;28;20264;-51
2022/08/17 06:12:23;;;;;;;7.07;6.37;;;;;;;20.53;83.42;98136.22;4979970;28;20271;-53
2022/08/17 06:15:03;;;;;;;6.83;6.00;;;;;;;20.72;82.80;98143.06;4974439;28;20707;-51
2022/08/17 06:17:31;;;;;;;9.33;5.90;;;;;;;20.96;81.37;98135.16;4972100;28;20247;-53
2022/08/17 06:20:03;;;;;;;8.10;6.37;;;;;;;21.08;77.57;98133.31;4969019;28;20227;-50
2022/08/17 06:22:34;;;;;;;7.67;5.90;;;;;;;21.14;77.87;98136.88;4973431;28;20247;-50
2022/08/17 06:25:07;;;;;;;5.90;5.40;;;;;;;21.10;76.07;98130.41;4986129;28;20234;-51
2022/08/17 06:27:38;;;;;;;5.67;5.07;;;;;;;20.98;77.40;98122.47;4979744;28;20250;-53
2022/08/17 06:30:11;;;;;;;5.57;4.53;;;;;;;20.87;75.47;98121.41;4979554;28;20317;-53
2022/08/17 06:32:40;;;;;;;4.77;4.20;;;;;;;20.78;75.56;98107.69;4976334;28;20302;-52
2022/08/17 06:35:10;;;;;;;4.13;3.10;;;;;;;20.76;71.58;98103.59;4964690;28;20316;-50
2022/08/17 06:38:14;;;;;;;3.03;2.77;;;;;;;20.76;68.09;98093.81;4968570;28;20236;-51
2022/08/17 06:40:59;;;;;;;2.70;2.50;;;;;;;20.85;66.92;98086.34;4947657;28;20726;-50
2022/08/17 06:43:46;;;;;;;3.90;3.03;;;;;;;20.87;70.01;98083.47;4967891;28;20256;-50
2022/08/17 06:46:20;;;;;;;4.17;2.80;;;;;;;20.89;69.35;98090.16;4976329;28;21245;-50
2022/08/17 06:48:52;;;;;;;3.50;3.20;;;;;;;21.01;71.05;98108.72;4970427;28;20249;-50
2022/08/17 06:51:27;;;;;;;4.47;3.13;;;;;;;21.06;71.49;98119.47;4971876;28;20304;-51
2022/08/17 06:54:04;;;;;;;3.67;3.30;;;;;;;21.15;71.96;98122.56;4960307;28;20251;-50
2022/08/17 06:56:37;;;;;;;3.57;3.27;;;;;;;21.22;72.81;98130.38;4964375;28;20241;-50
2022/08/17 06:59:08;;;;;;;5.70;3.50;;;;;;;21.21;69.39;98121.63;4960057;28;20285;-53
2022/08/17 07:01:39;;;;;;;2.77;2.57;;;;;;;21.34;69.14;98122.41;4961368;28;20763;-53
2022/08/17 07:04:12;;;;;;;3.37;2.87;;;;;;;21.38;68.50;98121.72;4962019;28;20243;-53
2022/08/17 07:06:45;;;;;;;4.57;2.87;;;;;;;21.47;64.33;98102.75;4971048;28;20615;-53
2022/08/17 07:09:20;;;;;;;3.50;2.50;;;;;;;21.61;62.05;98113.94;4977233;28;20232;-52
2022/08/17 07:11:50;;;;;;;4.70;2.97;;;;;;;21.66;64.00;98103.44;4978722;28;20253;-52
2022/08/17 07:14:36;;;;;;;3.93;2.87;;;;;;;21.70;61.47;98096.63;4980470;28;20294;-51
2022/08/17 07:17:07;;;;;;;2.93;2.63;;;;;;;21.80;61.63;98094.13;4970293;28;20238;-53
2022/08/17 07:19:37;;;;;;;6.77;2.80;;;;;;;21.84;63.89;98115.72;4969888;28;20232;-50
2022/08/17 07:22:14;;;;;;;2.30;2.10;;;;;;;21.79;62.83;98113.78;4977356;28;20244;-51
2022/08/17 07:24:48;;;;;;;4.57;2.40;;;;;;;21.77;63.34;98115.06;4969518;28;20309;-52
2022/08/17 07:27:20;;;;;;;4.90;2.70;;;;;;;21.74;62.25;98113.69;4976274;28;20230;-51
2022/08/17 07:30:08;;;;;;;3.27;2.63;;;;;;;21.76;63.47;98103.63;4963480;28;20276;-52
2022/08/17 07:32:38;;;;;;;3.50;2.70;;;;;;;21.68;64.72;98120.75;4952147;28;20237;-51
2022/08/17 07:35:13;;;;;;;9.47;3.50;;;;;;;21.62;66.61;98115.56;4956741;28;20708;-51
2022/08/17 07:37:42;;;;;;;3.67;3.10;;;;;;;21.31;70.22;98110.41;4975681;28;20314;-51
2022/08/17 07:40:22;;;;;;;3.93;3.13;;;;;;;21.19;72.56;98118.41;4974727;28;20765;-51
2022/08/17 07:43:16;;;;;;;3.70;3.27;;;;;;;20.92;74.12;98104.81;4970909;28;20273;-51
2022/08/17 07:48:40;;;;;;;5.63;3.30;;;;;;;20.69;77.55;98114.34;4970679;28;20235;-53
2022/08/17 07:51:27;;;;;;;4.37;3.60;;;;;;;20.59;77.68;98106.16;4969758;28;20243;-52
2022/08/17 07:53:56;;;;;;;3.77;3.40;;;;;;;20.51;79.12;98104.66;4968206;28;20227;-53
2022/08/17 07:56:40;;;;;;;4.13;3.73;;;;;;;20.47;76.47;98106.94;4976771;28;20295;-51
2022/08/17 07:59:11;;;;;;;5.80;4.10;;;;;;;20.41;79.45;98099.88;4977365;28;20627;-53
2022/08/17 08:01:39;;;;;;;5.90;4.10;;;;;;;20.29;80.30;98109.66;4965654;28;20239;-52
2022/08/17 08:04:35;;;;;;;4.60;4.20;;;;;;;20.18;81.76;98116.53;4968570;28;20250;-51
2022/08/17 08:07:07;;;;;;;7.40;4.20;;;;;;;20.08;80.45;98125.06;4943713;28;20244;-50
2022/08/17 08:09:39;;;;;;;4.47;4.00;;;;;;;20.08;78.33;98134.81;4975158;28;20745;-53
2022/08/17 08:12:24;;;;;;;4.37;3.63;;;;;;;20.16;73.14;98135.31;4975273;28;20263;-53
2022/08/17 08:14:55;;;;;;;7.63;3.73;;;;;;;20.24;75.99;98150.09;4979631;28;20265;-51
2022/08/17 08:17:25;;;;;;;4.13;3.60;;;;;;;20.30;73.66;98143.06;4974815;28;20235;-50
2022/08/17 08:19:52;;;;;;;6.10;4.40;;;;;;;20.55;68.38;98169.44;4966661;28;20236;-50
2022/08/17 08:22:28;;;;;;;6.67;5.07;;;;;;;20.57;72.80;98163.88;4964635;28;20243;-51
2022/08/17 08:25:07;;;;;;;7.17;4.80;;;;;;;20.50;70.34;98159.50;4976384;28;20263;-53
2022/08/17 08:27:45;;;;;;;11.40;5.20;;;;;;;20.55;74.91;98160.66;4990126;28;20327;-51
2022/08/17 08:30:15;;;;;;;10.43;4.80;;;;;;;20.52;70.39;98158.47;4968122;28;20686;-52
2022/08/17 08:32:56;;;;;;;5.30;4.40;;;;;;;20.61;69.04;98142.00;4967311;28;20268;-50
2022/08/17 08:35:31;;;;;;;6.17;4.47;;;;;;;20.69;71.52;98119.66;4965060;28;20234;-51
2022/08/17 08:38:07;;;;;;;5.17;4.47;;;;;;;20.53;73.42;98091.97;4975444;28;20230;-51
2022/08/17 08:40:50;;;;;;;5.37;4.53;;;;;;;20.54;75.26;98098.88;4978388;28;20700;-50
2022/08/17 08:43:26;;;;;;;5.67;4.70;;;;;;;20.48;74.67;98087.34;4974850;28;20392;-52
2022/08/17 08:46:04;;;;;;;5.30;4.43;;;;;;;20.41;74.25;98094.59;4980211;28;20226;-50
2022/08/17 08:49:04;;;;;;;6.80;4.87;;;;;;;20.40;73.94;98073.63;4978765;28;20238;-51
2022/08/17 08:51:39;;;;;;;5.77;4.43;;;;;;;20.37;78.37;98082.81;4973357;28;20236;-52
2022/08/17 08:54:32;;;;;;;8.43;5.00;;;;;;;20.26;77.48;98096.84;4961828;28;20682;-50
2022/08/17 08:57:07;;;;;;;5.10;4.60;;;;;;;20.28;75.77;98118.63;4973159;28;20737;-50
2022/08/17 09:00:07;;;;;;;6.93;5.03;;;;;;;20.23;73.40;98126.47;4977748;28;20236;-52
2022/08/17 09:03:02;;;;;;;7.03;4.77;;;;;;;20.39;77.06;98117.06;4979435;28;20235;-50
2022/08/17 09:05:42;;;;;;;5.80;5.20;;;;;;;20.56;77.68;98149.03;4974444;28;20238;-50
2022/08/17 09:08:15;;;;;;;5.77;4.63;;;;;;;20.56;74.53;98173.69;4970833;28;20265;-51
2022/08/17 09:10:53;;;;;;;7.70;5.03;;;;;;;20.39;77.18;98221.25;4975154;28;20262;-50
2022/08/17 09:13:28;;;;;;;6.70;5.20;;;;;;;20.45;77.12;98230.94;4967670;28;20255;-50
2022/08/17 09:15:59;;;;;;;6.97;5.50;;;;;;;20.70;76.44;98250.38;4961490;28;20264;-50
2022/08/17 09:18:32;;;;;;;8.37;5.70;;;;;;;20.74;78.37;98264.81;4970141;28;20335;-51
2022/08/17 09:21:03;;;;;;;12.30;6.47;;;;;;;20.75;79.02;98280.50;4967374;28;20228;-50
2022/08/17 09:23:32;;;;;;;7.87;6.53;;;;;;;20.85;78.86;98279.97;4972177;28;20673;-50
2022/08/17 09:26:06;;;;;;;8.93;6.47;;;;;;;20.82;77.01;98283.09;4976348;28;20234;-50
2022/08/17 09:28:36;;;;;;;10.03;6.93;;;;;;;20.96;80.10;98294.34;4976670;28;20584;-50
2022/08/17 09:31:08;;;;;;;8.23;5.90;;;;;;;21.12;78.50;98290.19;4975369;28;20237;-52
2022/08/17 09:33:41;;;;;;;7.97;5.87;;;;;;;21.31;78.01;98306.06;4966522;28;20227;-53
2022/08/17 09:36:15;;;;;;;7.90;6.57;;;;;;;21.20;78.14;98299.69;4966440;28;20246;-52
2022/08/17 09:38:52;;;;;;;7.83;6.67;;;;;;;21.16;77.83;98309.94;4971666;28;20233;-50
2022/08/17 09:41:24;;;;;;;6.90;6.10;;;;;;;21.35;74.97;98297.38;4979938;28;20233;-50
2022/08/17 09:43:58;;;;;;;8.97;6.40;;;;;;;21.62;72.48;98304.94;4981046;28;21161;-50
2022/08/17 09:46:31;;;;;;;7.20;5.80;;;;;;;21.83;72.67;98284.16;4975340;28;20258;-53
2022/08/17 09:49:08;;;;;;;7.23;5.87;;;;;;;21.92;71.52;98288.06;4979579;28;20233;-52
2022/08/17 09:51:39;;;;;;;6.63;5.57;;;;;;;22.14;74.65;98315.88;4970967;28;20852;-53
2022/08/17 09:54:17;;;;;;;7.60;5.70;;;;;;;22.15;72.85;98341.41;4977082;28;20232;-50
2022/08/17 09:56:55;;;;;;;7.07;5.77;;;;;;;22.18;72.38;98349.75;4968636;28;20232;-51
2022/08/17 09:59:38;;;;;;;7.87;6.10;;;;;;;22.34;73.22;98371.31;4980774;28;20233;-51
2022/08/17 10:02:28;;;;;;;9.60;6.97;;;;;;;22.29;71.73;98366.69;4975439;28;20271;-52
2022/08/17 10:05:01;;;;;;;10.83;6.27;;;;;;;22.44;71.88;98352.94;4976256;28;20310;-53
2022/08/17 10:07:33;;;;;;;12.43;7.17;;;;;;;22.70;71.76;98356.09;4979947;28;20251;-51
2022/08/17 10:10:11;;;;;;;10.67;7.20;;;;;;;22.72;71.44;98369.97;4979456;28;20304;-50
2022/08/17 10:12:43;;;;;;;7.73;6.10;;;;;;;22.76;67.69;98362.34;4973337;28;20324;-53
2022/08/17 10:15:26;;;;;;;6.97;5.67;;;;;;;22.56;68.83;98359.03;4975562;28;20320;-50
2022/08/17 10:18:18;;;;;;;6.47;5.60;;;;;;;22.72;69.46;98359.34;4986669;28;20331;-51
2022/08/17 10:26:31;;;;;;;5.17;4.67;;;;;;;23.19;61.29;98341.53;4973887;28;20410;-51
2022/08/17 10:29:02;;;;;;;4.70;4.20;;;;;;;23.47;58.77;98337.22;4975519;28;20260;-51
2022/08/17 10:31:33;;;;;;;5.43;4.90;;;;;;;23.47;59.43;98332.69;4976951;28;20716;-53
2022/08/17 10:34:21;;;;;;;5.37;4.63;;;;;;;23.84;60.30;98304.72;4964283;28;20347;-51
2022/08/17 10:36:55;;;;;;;4.63;4.00;;;;;;;24.37;57.22;98313.16;4973813;28;20263;-51
2022/08/17 10:39:33;;;;;;;7.23;5.03;;;;;;;24.65;56.10;98331.84;4977732;28;20234;-50
2022/08/17 10:42:15;;;;;;;7.57;4.67;;;;;;;25.11;54.81;98335.00;4981571;28;20304;-51
2022/08/17 10:44:48;;;;;;;8.07;5.50;;;;;;;25.45;53.28;98342.00;4979350;28;20311;-50
2022/08/17 10:47:18;;;;;;;5.77;4.60;;;;;;;25.02;55.11;98339.19;4975703;28;20236;-50
2022/08/17 10:49:48;;;;;;;6.67;5.30;;;;;;;25.40;54.76;98333.91;4977743;28;20214;-50
2022/08/17 10:52:47;;;;;;;10.90;5.30;;;;;;;25.72;54.14;98317.84;4977828;28;20235;-50
2022/08/17 10:55:16;;;;;;;4.90;4.50;;;;;;;25.75;54.52;98319.22;4973690;28;20309;-52
2022/08/17 10:57:44;;;;;;;7.87;4.60;;;;;;;25.96;53.39;98317.47;4977751;28;20335;-51
2022/08/17 11:00:15;;;;;;;6.23;5.63;;;;;;;26.02;52.47;98316.41;4970437;28;20353;-51
2022/08/17 11:02:49;;;;;;;11.13;8.33;;;;;;;25.72;54.13;98314.38;4944312;28;20606;-50
2022/08/17 11:05:38;;;;;;;6.10;5.47;;;;;;;25.45;56.56;98309.94;4970109;28;20231;-50
2022/08/17 11:08:37;;;;;;;7.03;5.50;;;;;;;25.98;54.66;98306.50;4970479;28;20318;-53
2022/08/17 11:11:25;;;;;;;7.23;5.53;;;;;;;25.97;54.93;98288.88;4963662;28;20231;-50
2022/08/17 11:14:12;;;;;;;7.07;4.50;;;;;;;25.76;53.22;98273.50;4975732;28;20239;-50
2022/08/17 11:16:50;;;;;;;7.47;4.70;;;;;;;26.06;50.16;98265.88;4972396;28;20232;-50
2022/08/17 11:19:42;;;;;;;6.17;4.27;;;;;;;26.18;49.97;98250.44;4978281;28;20228;-51
2022/08/17 11:22:29;;;;;;;4.75;3.70;;;;;;;26.31;48.88;98238.47;4978944;28;20247;-50
2022/08/17 11:25:11;;;;;;;5.77;4.40;;;;;;;26.50;47.94;98230.72;4975669;28;20222;-51
2022/08/17 11:27:38;;;;;;;4.60;4.20;;;;;;;26.45;52.68;98236.06;4976123;28;20289;-51
2022/08/17 11:30:10;;;;;;;6.43;5.33;;;;;;;26.50;52.99;98220.03;4971192;28;20793;-51
2022/08/17 11:32:41;;;;;;;14.75;8.55;;;;;;;26.28;52.71;98214.91;4976785;28;20244;-51
2022/08/17 11:35:24;;;;;;;12.80;8.35;;;;;;;26.32;53.76;98210.63;4979465;28;20260;-51
2022/08/17 11:38:10;;;;;;;9.70;6.20;;;;;;;26.37;51.78;98223.22;4975857;28;20241;-53
2022/08/17 11:40:50;;;;;;;6.50;5.70;;;;;;;26.20;53.44;98216.22;4973574;28;20247;-52
2022/08/17 11:43:46;;;;;;;5.93;5.20;;;;;;;26.30;52.03;98210.09;4973810;28;20234;-52
2022/08/17 11:46:23;;;;;;;6.97;5.70;;;;;;;26.38;51.23;98204.22;4968380;28;20295;-51
2022/08/17 11:52:25;;;;;;;6.20;5.53;;;;;;;26.79;44.99;98194.59;4971276;28;20241;-53
2022/08/17 11:54:53;;;;;;;6.03;5.50;;;;;;;27.30;40.16;98203.69;4908463;29;20246;-51
2022/08/17 11:57:53;;;;;;;5.43;4.88;;;;;;;27.96;39.48;98202.69;4955769;28;20318;-51
2022/08/17 12:00:55;;;;;;;6.68;4.60;;;;;;;28.64;36.84;98218.41;4971887;28;20255;-52
2022/08/17 12:03:41;;;;;;;4.43;4.00;;;;;;;29.53;35.10;98220.06;4976339;28;20239;-53
2022/08/17 12:06:18;;;;;;;6.07;5.47;;;;;;;28.38;43.64;98238.16;4975448;28;22858;-51
2022/08/17 12:08:50;;;;;;;5.85;5.32;;;;;;;28.71;45.19;98235.00;4980401;28;20231;-52
2022/08/17 12:11:24;;;;;;;6.10;5.35;;;;;;;28.10;45.90;98235.06;4976160;28;21236;-53
2022/08/17 12:13:56;;;;;;;6.22;4.85;;;;;;;28.14;43.68;98230.78;4976595;28;20338;-52
2022/08/17 12:16:23;;;;;;;6.78;5.38;;;;;;;28.10;44.66;98229.69;4972997;28;20229;-51
2022/08/17 12:18:52;;;;;;;5.85;4.97;;;;;;;27.52;43.46;98230.19;4966395;28;20314;-53
2022/08/17 12:21:31;;;;;;;6.38;5.18;;;;;;;27.17;42.44;98221.13;4979309;28;20590;-53
2022/08/17 12:24:05;;;;;;;7.40;5.27;;;;;;;27.43;42.25;98219.22;4970568;28;20258;-50